East Corinth, ME (04427)

7:02 PM EDT on July 04, 2015 (GMT -0400)
Stonyvale Farms | | Change Station
CLOSE
Current Station
Personal Weather Station
Location: Exeter, ME
Elevation: 269 ft
Nearby Weather Stations

Elev 269 ft 44.95 °N, 69.12 °W | Updated 4 minutes ago

Overcast
Overcast
70.1 °F
Feels Like 74 °F
N
2.0
Wind Variable Wind from SSW
Gusts 4.0 mph

Today
High -- | Low -- °F
--% Chance of Precip.
Yesterday
High -- | Low -- °F
Precip. -- in
4:54 AM 8:25 PM
Waning Gibbous, 89% visible
Pressure 29.94 in
Visibility 10.0 miles
Clouds Few 6000 ft
Mostly Cloudy 11000 ft
Overcast 15000 ft
Heat Index 74 °F
Dew Point 59 °F
Humidity 68%
Rainfall 0.00 in
Snow Depth Not available.
UV 0 out of 12
Pollen 4.40 out of 12
Air Quality Not available.
Flu Activity Not available.
METAR KBGR 042253Z 16008KT 10SM FEW060 BKN110 OVC150 20/13 A2994 RMK AO2 SLP136 T02000133

More Conditions Fewer Conditions

Pressure 29.94 in
Visibility 10.0 miles
Clouds Few 6000 ft
Mostly Cloudy 11000 ft
Overcast 15000 ft
Heat Index 74 °F
Dew Point 59 °F
Humidity 68%
Rainfall 0.00 in
Snow Depth Not available.
UV 0 out of 12
Pollen 4.40 out of 12
Air Quality Not available.
Flu Activity Not available.
METAR KBGR 042253Z 16008KT 10SM FEW060 BKN110 OVC150 20/13 A2994 RMK AO2 SLP136 T02000133

More Conditions Fewer Conditions

10-Day Weather Forecast

×

Almanac

Astronomy

Jul. 04, 2015 Rise Set
Actual Time
Civil Twilight
Nautical Twilight
Astronomical Twilight
Moon
Length of Visible Light
Length of Day
Tomorrow will be .
, % of the Moon is Illuminated

Today's Extremes

State Highs State Lows

Community

WunderPhotos

Upload Photos

1,835,112 photos uploaded!

WunderBlogs® & News

Nearby

Air Quality

  Air Quality AQ Index Pollutant
Not available.

Snow Depth

Station Depth Elevation

Earthquake Activity

City Distance Mag. Time & Date
Minimum magnitude displayed is 2.5.

Coastal Water Temperatures

Place Temperature

Stations

Nearby Weather Stations

Station Location Temp. Windchill Dew Point Humidity Wind Precip. Elev Updated Type